Time;durP1;ratioP1;P1;durP2;ratioP2;P2;SDS_P1;SDS_P2;PMS_P1;PMS_P2;Temp;Humidity;BMP_temperature;BMP_pressure;BME280_temperature;BME280_humidity;BME280_pressure;Samples;Min_cycle;Max_cycle;Signal;HPM_P1;HPM_P2
2021/09/08 00:00:10;;;;;;;10.32;5.55;;;14.70;99.90;;;13.36;92.43;101608.28;2569360;30;137546;-41
2021/09/08 00:02:39;;;;;;;9.88;5.97;;;14.70;99.90;;;13.35;92.66;101606.59;2568556;30;137265;-41
2021/09/08 00:05:11;;;;;;;10.48;5.57;;;14.70;99.90;;;13.32;92.82;101612.50;2569067;30;137591;-41
2021/09/08 00:07:38;;;;;;;11.82;5.78;;;14.70;99.90;;;13.31;93.12;101608.09;2568286;30;138240;-41
2021/09/08 00:10:08;;;;;;;10.30;6.30;;;14.70;99.90;;;13.30;93.35;101609.16;2568465;30;137461;-41
2021/09/08 00:12:37;;;;;;;9.77;5.80;;;14.70;99.90;;;13.28;93.09;101605.78;2565805;30;136896;-41
2021/09/08 00:15:09;;;;;;;9.88;5.45;;;14.70;99.90;;;13.26;92.96;101607.88;2567467;30;137407;-40
2021/09/08 00:17:38;;;;;;;11.68;6.15;;;14.70;99.90;;;13.24;93.26;101599.88;2568810;30;138177;-41
2021/09/08 00:20:09;;;;;;;8.93;5.47;;;14.60;99.90;;;13.23;93.30;101600.91;2566750;30;137093;-40
2021/09/08 00:22:38;;;;;;;8.82;5.43;;;14.60;99.90;;;13.21;93.01;101605.78;2568897;30;139426;-40
2021/09/08 00:25:08;;;;;;;9.55;5.78;;;14.60;99.90;;;13.18;92.98;101597.97;2569141;30;136771;-40
2021/09/08 00:27:36;;;;;;;8.65;5.63;;;14.50;99.90;;;13.16;nan;101597.34;2568625;30;138344;-41
2021/09/08 00:30:05;;;;;;;9.88;5.88;;;14.50;99.90;;;13.14;93.28;101599.47;2567568;30;138304;-41
2021/09/08 00:32:34;;;;;;;10.27;5.95;;;14.50;99.90;;;13.08;93.19;101590.19;2568888;30;138406;-40
2021/09/08 00:35:05;;;;;;;10.27;5.80;;;14.50;99.90;;;13.04;93.16;101589.78;2568327;30;138206;-40
2021/09/08 00:37:38;;;;;;;10.40;5.88;;;14.40;99.90;;;13.03;93.52;101587.22;2566522;30;137451;-40
2021/09/08 18:51:28;;;;;;;8.70;5.88;;;21.80;99.90;;;18.96;70.17;100901.84;2558914;30;138108;-40
2021/09/08 18:53:57;;;;;;;9.23;6.18;;;20.30;99.90;;;18.92;69.48;100899.88;2573326;30;136849;-40
2021/09/08 18:56:25;;;;;;;10.65;6.25;;;20.20;99.90;;;18.86;68.92;100903.72;2571004;30;138376;-40
2021/09/08 18:58:52;;;;;;;;;;;20.10;99.90;;;18.79;69.74;100904.75;2572961;30;136722;-39
2021/09/08 19:01:20;;;;;;;11.98;6.47;;;20.00;99.90;;;18.67;70.36;100893.09;2572679;30;138366;-39
2021/09/08 19:03:49;;;;;;;9.25;6.45;;;19.90;99.90;;;18.62;70.02;100906.88;2572388;30;137556;-40
2021/09/08 19:06:16;;;;;;;;;;;19.90;99.90;;;18.53;70.31;100899.06;2572556;30;137865;-43
2021/09/08 19:08:44;;;;;;;9.30;6.20;;;19.80;99.90;;;18.49;71.37;100897.91;2571418;30;137173;-39
2021/09/08 19:11:17;;;;;;;9.02;5.82;;;19.70;99.90;;;18.37;72.12;100898.09;2572152;30;138952;-40
2021/09/08 19:13:46;;;;;;;10.25;6.45;;;19.60;99.90;;;18.28;73.08;100896.06;2572311;30;137064;-39
2021/09/08 19:16:16;;;;;;;10.88;6.80;;;19.50;99.90;;;18.14;73.04;100895.69;2571530;30;138525;-40
2021/09/08 19:18:45;;;;;;;9.00;6.22;;;19.40;99.90;;;18.08;73.86;100903.09;2570886;30;137374;-39
2021/09/08 19:21:12;;;;;;;12.15;6.63;;;19.30;99.90;;;18.03;76.25;100905.78;2572400;30;137153;-39
2021/09/08 19:23:49;;;;;;;12.48;7.43;;;19.30;99.90;;;17.90;77.85;100895.97;2569948;30;138342;-39
2021/09/08 19:26:17;;;;;;;12.45;6.70;;;19.10;99.90;;;17.91;78.27;100892.13;2571878;30;137425;-39
2021/09/08 19:28:45;;;;;;;10.70;7.20;;;19.10;99.90;;;17.85;79.24;100899.53;2571467;30;137630;-39
2021/09/08 19:31:12;;;;;;;;;;;19.10;99.90;;;17.68;79.12;100894.91;2569780;30;138412;-39
2021/09/08 19:33:40;;;;;;;11.13;7.00;;;18.90;99.90;;;17.56;78.25;100896.16;2570463;30;136966;-39
2021/09/08 19:36:11;;;;;;;12.35;7.25;;;18.80;99.90;;;17.45;78.95;100893.28;2566447;30;137727;-39
2021/09/08 19:38:40;;;;;;;11.02;7.53;;;18.70;99.90;;;17.47;80.82;100891.09;2568375;30;136906;-40
2021/09/08 19:41:08;;;;;;;10.13;7.32;;;18.70;99.90;;;17.37;80.92;100894.56;2568674;30;138150;-39
2021/09/08 19:43:35;;;;;;;;;;;18.60;99.90;;;17.31;81.27;100894.75;2569377;30;137077;-39
2021/09/08 19:46:03;;;;;;;10.98;7.25;;;18.50;99.90;;;17.30;81.76;100893.06;2568187;30;136807;-39
2021/09/08 19:48:31;;;;;;;11.48;7.70;;;18.50;99.90;;;17.17;81.21;100892.38;2568223;30;137440;-39
2021/09/08 19:50:59;;;;;;;10.43;7.63;;;18.40;99.90;;;17.05;81.11;100884.22;2569106;30;138134;-40
2021/09/08 19:53:27;;;;;;;;;;;18.30;99.90;;;16.96;81.65;100886.56;2568234;30;137523;-41
2021/09/08 19:55:54;;;;;;;10.70;7.57;;;18.20;99.90;;;16.86;82.11;100877.31;2567123;38;139104;-39
2021/09/08 19:58:22;;;;;;;13.48;7.78;;;18.20;99.90;;;16.81;82.41;100889.91;2566073;30;137756;-40
2021/09/08 20:00:49;;;;;;;9.80;7.38;;;18.10;99.90;;;16.74;82.65;100885.66;2569291;30;138553;-41
2021/09/08 20:03:17;;;;;;;11.35;7.93;;;18.00;99.90;;;16.67;82.67;100878.41;2567283;30;136769;-39
2021/09/08 20:05:45;;;;;;;11.60;8.15;;;18.00;99.90;;;16.64;82.92;100876.19;2568078;30;139080;-39
2021/09/08 20:08:12;;;;;;;9.45;6.80;;;17.90;99.90;;;16.60;83.05;100880.53;2569440;30;137574;-39
2021/09/08 20:10:40;;;;;;;12.57;7.72;;;17.90;99.90;;;16.56;83.44;100881.28;2569707;30;137503;-39
2021/09/08 20:13:07;;;;;;;11.30;7.50;;;17.80;99.90;;;16.50;83.57;100880.34;2568672;30;137849;-40
2021/09/08 20:15:35;;;;;;;12.27;7.55;;;17.80;99.90;;;16.47;83.21;100878.94;2568374;30;138208;-39
2021/09/08 20:18:02;;;;;;;9.63;6.70;;;17.70;99.90;;;16.41;83.53;100882.69;2568324;30;136707;-40
2021/09/08 20:20:30;;;;;;;13.95;7.47;;;17.70;99.90;;;16.35;83.75;100878.19;2568438;30;139049;-43
2021/09/08 20:22:57;;;;;;;10.07;6.95;;;17.60;99.90;;;16.31;84.04;100882.53;2569107;30;137593;-40
2021/09/08 20:25:25;;;;;;;12.02;6.97;;;17.60;99.90;;;16.27;84.06;100879.41;2566838;30;137813;-40
2021/09/08 20:27:53;;;;;;;11.48;7.35;;;17.60;99.90;;;16.22;84.31;100874.69;2568748;30;137113;-40
2021/09/08 20:30:20;;;;;;;9.27;7.07;;;17.50;99.90;;;16.19;84.22;100877.09;2565756;30;138091;-39
2021/09/08 20:32:48;;;;;;;9.52;7.35;;;17.50;99.90;;;16.10;84.63;100872.00;2568421;30;137463;-40
2021/09/08 20:35:16;;;;;;;11.02;7.07;;;17.40;99.90;;;16.07;84.66;100867.00;2567213;30;137979;-39
2021/09/08 20:37:44;;;;;;;12.57;7.40;;;17.40;99.90;;;16.05;84.78;100862.81;2569113;30;137013;-39
2021/09/08 20:40:13;;;;;;;12.23;7.72;;;17.30;99.90;;;16.00;85.12;100865.47;2568721;30;137317;-39
2021/09/08 20:42:42;;;;;;;10.40;6.95;;;17.30;99.90;;;15.92;84.93;100859.31;2568910;30;138466;-39
2021/09/08 20:45:12;;;;;;;10.68;7.18;;;17.20;99.90;;;15.87;84.84;100861.91;2565795;30;137636;-39
2021/09/08 20:47:42;;;;;;;11.15;7.35;;;17.20;99.90;;;15.81;85.51;100860.16;2567661;30;138089;-39
2021/09/08 20:50:13;;;;;;;11.30;7.40;;;17.10;99.90;;;15.76;85.12;100855.38;2568337;30;138254;-39
2021/09/08 20:52:43;;;;;;;9.10;6.50;;;17.10;99.90;;;15.70;85.08;100861.06;2569439;30;137303;-39
2021/09/08 20:55:12;;;;;;;11.52;7.95;;;17.00;99.90;;;15.65;85.53;100870.88;2566834;30;138258;-39
2021/09/08 20:57:39;;;;;;;11.48;7.68;;;17.00;99.90;;;15.59;85.33;100866.34;2568056;30;137062;-39
2021/09/08 21:00:09;;;;;;;;;;;16.90;99.90;;;15.56;85.64;100858.59;2569231;30;137431;-40
2021/09/08 21:02:37;;;;;;;10.82;7.30;;;16.90;99.90;;;15.51;85.94;100859.31;2567369;30;137188;-39
2021/09/08 21:05:06;;;;;;;9.38;7.03;;;16.80;99.90;;;15.49;85.91;100866.16;2568732;30;139232;-41
2021/09/08 21:07:34;;;;;;;10.52;7.18;;;16.80;99.90;;;15.45;85.96;100859.50;2566894;30;137786;-39
2021/09/08 21:10:03;;;;;;;12.32;7.70;;;16.70;99.90;;;15.41;85.82;100859.13;2568564;30;137449;-40
2021/09/08 21:12:32;;;;;;;12.77;7.63;;;16.70;99.90;;;15.34;86.17;100853.75;2568740;30;136878;-39
2021/09/08 21:14:59;;;;;;;;;;;16.70;99.90;;;15.33;86.36;100859.53;2566062;30;138871;-40
2021/09/08 21:17:27;;;;;;;11.93;8.30;;;16.60;99.90;;;15.31;86.29;100857.00;2567893;30;137270;-43
2021/09/08 21:19:54;;;;;;;12.27;7.72;;;16.60;99.90;;;15.28;86.19;100860.25;2569309;30;138058;-39
2021/09/08 21:22:22;;;;;;;10.50;8.13;;;16.60;99.90;;;15.22;86.69;100858.47;2568588;30;137745;-39
2021/09/08 21:24:50;;;;;;;11.70;7.97;;;16.50;99.90;;;15.22;86.37;100856.53;2565202;30;138851;-40
2021/09/08 21:27:17;;;;;;;12.25;8.07;;;16.60;99.90;;;15.20;86.59;100864.19;2567985;30;137603;-40
2021/09/08 21:29:45;;;;;;;11.98;7.90;;;16.50;99.90;;;15.15;86.67;100860.53;2567613;30;137777;-39
2021/09/08 21:32:12;;;;;;;11.32;7.60;;;16.50;99.90;;;15.10;86.92;100864.81;2567952;30;138240;-39
2021/09/08 21:34:40;;;;;;;11.68;7.20;;;16.40;99.90;;;15.06;86.97;100860.06;2567334;30;137435;-40
2021/09/08 21:37:07;;;;;;;12.15;8.23;;;16.40;99.90;;;15.03;87.21;100855.88;2567994;30;137654;-39
2021/09/08 21:39:35;;;;;;;11.65;7.82;;;16.30;99.90;;;15.01;87.13;100859.97;2567797;30;137493;-39
2021/09/08 21:42:04;;;;;;;13.02;8.75;;;16.30;99.90;;;14.96;87.32;100858.75;2566697;30;137802;-40
2021/09/08 21:44:31;;;;;;;13.27;8.15;;;16.30;99.90;;;14.92;87.51;100857.56;2567634;30;138209;-40
2021/09/08 21:46:59;;;;;;;12.10;8.15;;;16.20;99.90;;;14.88;87.25;100861.06;2567201;30;137922;-39
2021/09/08 21:49:26;;;;;;;11.07;7.45;;;16.20;99.90;;;14.82;87.32;100858.16;2567407;30;139127;-40
2021/09/08 21:51:54;;;;;;;14.05;8.57;;;16.10;99.90;;;14.79;87.64;100852.34;2565546;30;137458;-39
2021/09/08 21:54:21;;;;;;;12.30;8.13;;;16.10;99.90;;;14.77;87.68;100854.50;2566946;30;139112;-40
2021/09/08 21:56:49;;;;;;;11.10;7.97;;;16.10;99.90;;;14.72;87.75;100854.34;2567927;30;138209;-39
2021/09/08 21:59:17;;;;;;;12.90;8.52;;;16.00;99.90;;;14.67;87.81;100852.31;2568706;30;137545;-41
2021/09/08 22:01:44;;;;;;;12.10;8.23;;;16.00;99.90;;;14.62;88.16;100864.00;2567551;30;138172;-39
2021/09/08 22:04:12;;;;;;;13.27;8.75;;;15.90;99.90;;;14.56;88.02;100848.50;2568178;30;138320;-40
2021/09/08 22:06:40;;;;;;;14.38;8.57;;;15.90;99.90;;;14.52;88.17;100850.88;2567256;30;137414;-39
2021/09/08 22:09:07;;;;;;;11.27;7.90;;;15.90;99.90;;;14.52;88.49;100850.03;2566998;30;138236;-40
2021/09/08 22:11:35;;;;;;;11.98;7.90;;;15.80;99.90;;;14.48;88.53;100851.59;2567929;30;136836;-40
2021/09/08 22:14:03;;;;;;;12.20;8.48;;;15.80;99.90;;;14.45;88.46;100852.06;2567821;30;138594;-40
2021/09/08 22:16:30;;;;;;;12.05;8.38;;;15.80;99.90;;;14.40;88.77;100841.81;2566443;30;138739;-39
2021/09/08 22:18:58;;;;;;;12.00;8.80;;;15.70;99.90;;;14.38;89.09;100847.53;2567937;30;137322;-39
2021/09/08 22:21:27;;;;;;;11.95;8.43;;;15.70;99.90;;;14.37;89.02;100845.84;2567153;30;137056;-41
2021/09/08 22:23:54;;;;;;;11.43;7.75;;;15.70;99.90;;;14.35;89.14;100845.25;2565228;30;137500;-39
2021/09/08 22:26:22;;;;;;;11.77;7.95;;;15.70;99.90;;;14.33;88.86;100841.09;2568180;30;136823;-41
2021/09/08 22:28:50;;;;;;;;;;;15.70;99.90;;;14.30;88.67;100838.78;2567620;30;138441;-40
2021/09/08 22:31:17;;;;;;;11.38;8.00;;;15.70;99.90;;;14.28;88.85;100835.47;2568267;30;137310;-39
2021/09/08 22:33:45;;;;;;;;;;;15.60;99.90;;;14.23;88.95;100834.25;2566679;30;137862;-40
2021/09/08 22:36:13;;;;;;;11.95;8.00;;;15.60;99.90;;;14.20;88.59;100840.22;2567956;30;137098;-39
2021/09/08 22:38:40;;;;;;;13.40;8.43;;;15.50;99.90;;;14.18;89.17;100842.38;2565494;30;138127;-39
2021/09/08 22:41:08;;;;;;;10.80;7.78;;;15.50;99.90;;;14.12;88.89;100845.22;2567727;30;137462;-39
2021/09/08 22:43:35;;;;;;;11.32;8.32;;;15.40;99.90;;;14.06;89.06;100845.09;2567803;30;137953;-40
2021/09/08 22:46:03;;;;;;;10.93;7.30;;;15.40;99.90;;;14.04;89.27;100846.38;2567822;30;137379;-40
2021/09/08 22:48:30;;;;;;;12.98;8.05;;;15.40;99.90;;;13.97;89.32;100841.03;2566968;30;137354;-39
2021/09/08 22:50:58;;;;;;;11.00;7.95;;;15.30;99.90;;;13.93;89.40;100842.56;2567541;30;136985;-39
2021/09/08 22:53:25;;;;;;;10.90;7.38;;;15.30;99.90;;;13.90;89.46;100843.03;2568180;30;138207;-40
2021/09/08 22:55:54;;;;;;;12.85;8.43;;;15.20;99.90;;;13.87;89.87;100846.22;2564526;30;137622;-39
2021/09/08 22:58:21;;;;;;;11.27;7.97;;;15.20;99.90;;;13.85;90.01;100840.16;2567113;30;138972;-39
2021/09/08 23:00:49;;;;;;;11.93;8.20;;;15.20;99.90;;;13.78;89.78;100832.00;2568086;30;137028;-39
2021/09/08 23:03:17;;;;;;;11.48;7.97;;;15.20;99.90;;;13.82;89.83;100838.72;2568251;30;137244;-39
2021/09/08 23:05:45;;;;;;;12.93;8.45;;;15.20;99.90;;;13.81;90.45;100829.66;2567396;30;137042;-39
2021/09/08 23:08:13;;;;;;;12.07;7.88;;;15.10;99.90;;;13.81;90.77;100826.09;2567876;30;138368;-40
2021/09/08 23:10:44;;;;;;;11.35;8.20;;;15.10;99.90;;;13.81;90.41;100826.09;2565348;30;137789;-40
2021/09/08 23:13:11;;;;;;;12.40;8.27;;;15.20;99.90;;;13.79;90.42;100833.69;2568641;30;139116;-39
2021/09/08 23:15:39;;;;;;;;;;;15.10;99.90;;;13.76;90.50;100829.53;2568762;30;137505;-39
2021/09/08 23:18:08;;;;;;;12.90;8.80;;;15.10;99.90;;;13.75;90.51;100827.00;2568427;30;138116;-39
2021/09/08 23:20:37;;;;;;;11.50;7.68;;;15.10;99.90;;;13.73;90.67;100826.41;2568805;30;137478;-39
2021/09/08 23:23:05;;;;;;;11.35;8.15;;;15.10;99.90;;;13.72;90.78;100822.00;2568112;30;137341;-39
2021/09/08 23:25:35;;;;;;;13.15;8.15;;;15.00;99.90;;;13.70;90.79;100822.25;2567936;30;137423;-39
2021/09/08 23:28:04;;;;;;;13.10;8.65;;;15.10;99.90;;;13.68;90.49;100820.78;2568495;30;138241;-39
2021/09/08 23:30:32;;;;;;;13.07;8.60;;;15.00;99.90;;;13.65;90.42;100816.59;2568200;30;138178;-39
2021/09/08 23:33:01;;;;;;;12.57;8.45;;;15.00;99.90;;;13.62;90.47;100817.91;2567478;30;136838;-39
2021/09/08 23:35:29;;;;;;;12.27;7.78;;;15.00;99.90;;;13.60;90.34;100814.56;2566541;30;137274;-40
2021/09/08 23:37:57;;;;;;;12.30;8.23;;;15.00;99.90;;;13.58;90.40;100813.13;2568944;30;136831;-41
2021/09/08 23:40:25;;;;;;;;;;;14.90;99.90;;;13.50;90.92;100804.16;2567841;30;138461;-39
2021/09/08 23:42:53;;;;;;;12.68;8.32;;;14.90;99.90;;;13.51;90.54;100810.47;2565702;30;137448;-39
2021/09/08 23:45:22;;;;;;;;;;;14.90;99.90;;;13.51;91.01;100805.00;2567156;30;137012;-39
2021/09/08 23:47:51;;;;;;;11.75;7.88;;;14.90;99.90;;;13.46;90.82;100802.97;2568878;30;137487;-39
2021/09/08 23:50:19;;;;;;;10.50;7.50;;;14.80;99.90;;;13.36;91.18;100788.94;2568988;30;137488;-39
2021/09/08 23:52:48;;;;;;;12.30;7.80;;;14.80;99.90;;;13.40;91.05;100792.91;2568566;30;137480;-40
2021/09/08 23:55:16;;;;;;;11.90;7.65;;;14.80;99.90;;;13.37;91.09;100796.94;2567897;30;137532;-41
2021/09/08 23:57:46;;;;;;;11.07;7.70;;;14.70;99.90;;;13.32;91.22;100788.59;2568891;30;138766;-39
